Terminal Aerodrome Forecast
Issued by NWS

Home | Current Version | Previous Version | Text Only | Print | Product List | Glossary On
Versions: 1 2 3 4 5 6 7 8 9 10 11 12 13 14 15 16 17 18 19 20 21 22
000
FTUS44 KMAF 221100
TAFCNM
TAF
KCNM 221135Z 2212/2312 03005KT P6SM OVC025
      TEMPO 2212/2216 1SM SHRA BR BKN008 OVC025
     FM221600 11005KT P6SM OVC035
      TEMPO 2216/2220 4SM -SHRA BR OVC015
     FM222000 14010KT P6SM BKN070
      TEMPO 2220/2224 4SM -SHRA BR OVC015=

USA.gov is the U.S. government's official web portal to all federal, state and local government web resources and services.